sensor_id;sensor_type;location;lat;lon;timestamp;P1;durP1;ratioP1;P2;durP2;ratioP2
6840;SDS011;3458;53.678;14.080;2023-04-06T00:00:32;3.13;;;2.07;;
6840;SDS011;3458;53.678;14.080;2023-04-06T00:02:57;4.13;;;1.97;;
6840;SDS011;3458;53.678;14.080;2023-04-06T00:05:23;4.43;;;2.00;;
6840;SDS011;3458;53.678;14.080;2023-04-06T00:07:49;3.10;;;2.33;;
6840;SDS011;3458;53.678;14.080;2023-04-06T00:10:15;5.03;;;2.53;;
6840;SDS011;3458;53.678;14.080;2023-04-06T00:12:41;7.10;;;2.50;;
6840;SDS011;3458;53.678;14.080;2023-04-06T00:15:07;2.60;;;2.17;;
6840;SDS011;3458;53.678;14.080;2023-04-06T00:17:33;8.53;;;2.60;;
6840;SDS011;3458;53.678;14.080;2023-04-06T00:19:58;3.90;;;2.00;;
6840;SDS011;3458;53.678;14.080;2023-04-06T00:22:24;2.43;;;2.00;;
6840;SDS011;3458;53.678;14.080;2023-04-06T00:24:49;2.53;;;2.33;;
6840;SDS011;3458;53.678;14.080;2023-04-06T00:27:15;7.53;;;2.73;;
6840;SDS011;3458;53.678;14.080;2023-04-06T00:29:40;3.60;;;2.37;;
6840;SDS011;3458;53.678;14.080;2023-04-06T00:32:06;3.40;;;2.10;;
6840;SDS011;3458;53.678;14.080;2023-04-06T00:34:31;3.23;;;2.43;;
6840;SDS011;3458;53.678;14.080;2023-04-06T00:36:57;6.50;;;3.20;;
6840;SDS011;3458;53.678;14.080;2023-04-06T00:39:22;2.50;;;2.03;;
6840;SDS011;3458;53.678;14.080;2023-04-06T00:41:51;9.43;;;3.13;;
6840;SDS011;3458;53.678;14.080;2023-04-06T00:44:17;8.40;;;3.50;;
6840;SDS011;3458;53.678;14.080;2023-04-06T00:46:44;3.43;;;2.30;;
6840;SDS011;3458;53.678;14.080;2023-04-06T00:49:10;3.87;;;2.63;;
6840;SDS011;3458;53.678;14.080;2023-04-06T00:51:35;5.07;;;2.57;;
6840;SDS011;3458;53.678;14.080;2023-04-06T00:54:01;3.57;;;2.50;;
6840;SDS011;3458;53.678;14.080;2023-04-06T00:56:26;5.03;;;3.07;;
6840;SDS011;3458;53.678;14.080;2023-04-06T00:58:52;5.27;;;3.10;;
6840;SDS011;3458;53.678;14.080;2023-04-06T01:01:18;3.23;;;2.60;;
6840;SDS011;3458;53.678;14.080;2023-04-06T01:03:43;4.93;;;2.83;;
6840;SDS011;3458;53.678;14.080;2023-04-06T01:06:12;4.93;;;2.43;;
6840;SDS011;3458;53.678;14.080;2023-04-06T01:08:37;2.33;;;1.90;;
6840;SDS011;3458;53.678;14.080;2023-04-06T01:11:03;4.10;;;2.33;;
6840;SDS011;3458;53.678;14.080;2023-04-06T01:13:28;6.73;;;3.10;;
6840;SDS011;3458;53.678;14.080;2023-04-06T01:15:54;2.50;;;2.30;;
6840;SDS011;3458;53.678;14.080;2023-04-06T01:18:25;4.10;;;3.20;;
6840;SDS011;3458;53.678;14.080;2023-04-06T01:20:51;3.07;;;2.53;;
6840;SDS011;3458;53.678;14.080;2023-04-06T01:23:17;4.33;;;2.60;;
6840;SDS011;3458;53.678;14.080;2023-04-06T01:25:42;4.30;;;2.70;;
6840;SDS011;3458;53.678;14.080;2023-04-06T01:28:07;5.80;;;2.57;;
6840;SDS011;3458;53.678;14.080;2023-04-06T01:30:33;9.67;;;3.03;;
6840;SDS011;3458;53.678;14.080;2023-04-06T01:32:58;3.30;;;2.47;;
6840;SDS011;3458;53.678;14.080;2023-04-06T01:35:25;3.13;;;2.30;;
6840;SDS011;3458;53.678;14.080;2023-04-06T01:37:51;2.80;;;2.50;;
6840;SDS011;3458;53.678;14.080;2023-04-06T01:40:17;2.30;;;2.10;;
6840;SDS011;3458;53.678;14.080;2023-04-06T01:42:43;4.10;;;2.50;;
6840;SDS011;3458;53.678;14.080;2023-04-06T01:45:08;3.67;;;2.33;;
6840;SDS011;3458;53.678;14.080;2023-04-06T01:47:34;5.50;;;3.20;;
6840;SDS011;3458;53.678;14.080;2023-04-06T01:49:59;3.00;;;2.70;;
6840;SDS011;3458;53.678;14.080;2023-04-06T01:52:25;7.73;;;2.90;;
6840;SDS011;3458;53.678;14.080;2023-04-06T01:54:51;5.60;;;3.67;;
6840;SDS011;3458;53.678;14.080;2023-04-06T01:57:16;4.47;;;2.83;;
6840;SDS011;3458;53.678;14.080;2023-04-06T01:59:42;3.70;;;3.03;;
6840;SDS011;3458;53.678;14.080;2023-04-06T02:02:07;3.30;;;3.00;;
6840;SDS011;3458;53.678;14.080;2023-04-06T02:04:32;6.20;;;3.47;;
6840;SDS011;3458;53.678;14.080;2023-04-06T02:06:58;6.67;;;3.33;;
6840;SDS011;3458;53.678;14.080;2023-04-06T02:09:23;5.23;;;3.17;;
6840;SDS011;3458;53.678;14.080;2023-04-06T02:11:49;4.87;;;3.60;;
6840;SDS011;3458;53.678;14.080;2023-04-06T02:14:14;5.80;;;3.00;;
6840;SDS011;3458;53.678;14.080;2023-04-06T02:16:40;5.87;;;3.43;;
6840;SDS011;3458;53.678;14.080;2023-04-06T02:19:06;16.10;;;7.97;;
6840;SDS011;3458;53.678;14.080;2023-04-06T02:21:31;26.87;;;11.33;;
6840;SDS011;3458;53.678;14.080;2023-04-06T02:23:57;16.80;;;7.07;;
6840;SDS011;3458;53.678;14.080;2023-04-06T02:26:22;12.93;;;4.00;;
6840;SDS011;3458;53.678;14.080;2023-04-06T02:28:48;3.97;;;3.20;;
6840;SDS011;3458;53.678;14.080;2023-04-06T02:31:14;3.13;;;2.43;;
6840;SDS011;3458;53.678;14.080;2023-04-06T02:33:40;4.43;;;3.57;;
6840;SDS011;3458;53.678;14.080;2023-04-06T02:36:05;4.73;;;3.57;;
6840;SDS011;3458;53.678;14.080;2023-04-06T02:38:31;5.40;;;3.40;;
6840;SDS011;3458;53.678;14.080;2023-04-06T02:40:56;6.10;;;3.77;;
6840;SDS011;3458;53.678;14.080;2023-04-06T02:43:22;5.70;;;4.23;;
6840;SDS011;3458;53.678;14.080;2023-04-06T02:45:47;5.03;;;3.70;;
6840;SDS011;3458;53.678;14.080;2023-04-06T02:48:13;6.20;;;3.90;;
6840;SDS011;3458;53.678;14.080;2023-04-06T02:50:39;7.37;;;4.47;;
6840;SDS011;3458;53.678;14.080;2023-04-06T02:53:04;6.10;;;4.63;;
6840;SDS011;3458;53.678;14.080;2023-04-06T02:55:29;6.33;;;4.30;;
6840;SDS011;3458;53.678;14.080;2023-04-06T02:57:55;6.83;;;4.20;;
6840;SDS011;3458;53.678;14.080;2023-04-06T03:00:20;9.67;;;4.10;;
6840;SDS011;3458;53.678;14.080;2023-04-06T03:02:46;6.83;;;4.10;;
6840;SDS011;3458;53.678;14.080;2023-04-06T03:05:12;8.97;;;4.27;;
6840;SDS011;3458;53.678;14.080;2023-04-06T03:07:37;6.60;;;4.40;;
6840;SDS011;3458;53.678;14.080;2023-04-06T03:10:03;5.57;;;4.30;;
6840;SDS011;3458;53.678;14.080;2023-04-06T03:12:28;7.93;;;4.60;;
6840;SDS011;3458;53.678;14.080;2023-04-06T03:14:54;8.53;;;4.50;;
6840;SDS011;3458;53.678;14.080;2023-04-06T03:17:19;11.27;;;5.40;;
6840;SDS011;3458;53.678;14.080;2023-04-06T03:19:45;6.63;;;4.53;;
6840;SDS011;3458;53.678;14.080;2023-04-06T03:22:10;8.23;;;4.33;;
6840;SDS011;3458;53.678;14.080;2023-04-06T03:24:36;6.67;;;3.80;;
6840;SDS011;3458;53.678;14.080;2023-04-06T03:27:01;10.40;;;4.93;;
6840;SDS011;3458;53.678;14.080;2023-04-06T03:29:27;12.73;;;5.50;;
6840;SDS011;3458;53.678;14.080;2023-04-06T03:31:52;7.47;;;4.57;;
6840;SDS011;3458;53.678;14.080;2023-04-06T03:34:18;7.63;;;4.50;;
6840;SDS011;3458;53.678;14.080;2023-04-06T03:36:43;8.43;;;5.20;;
6840;SDS011;3458;53.678;14.080;2023-04-06T03:39:09;10.50;;;5.50;;
6840;SDS011;3458;53.678;14.080;2023-04-06T03:41:34;13.33;;;6.90;;
6840;SDS011;3458;53.678;14.080;2023-04-06T03:44:00;11.30;;;5.27;;
6840;SDS011;3458;53.678;14.080;2023-04-06T03:46:25;12.13;;;5.10;;
6840;SDS011;3458;53.678;14.080;2023-04-06T03:48:52;6.73;;;4.60;;
6840;SDS011;3458;53.678;14.080;2023-04-06T03:51:17;7.97;;;4.80;;
6840;SDS011;3458;53.678;14.080;2023-04-06T03:53:43;9.67;;;5.80;;
6840;SDS011;3458;53.678;14.080;2023-04-06T03:56:08;9.30;;;5.73;;
6840;SDS011;3458;53.678;14.080;2023-04-06T03:58:34;11.67;;;6.17;;
6840;SDS011;3458;53.678;14.080;2023-04-06T04:00:59;12.10;;;6.10;;
6840;SDS011;3458;53.678;14.080;2023-04-06T04:03:25;15.00;;;5.30;;
6840;SDS011;3458;53.678;14.080;2023-04-06T04:05:52;10.70;;;5.83;;
6840;SDS011;3458;53.678;14.080;2023-04-06T04:08:18;8.30;;;5.47;;
6840;SDS011;3458;53.678;14.080;2023-04-06T04:10:43;12.30;;;6.00;;
6840;SDS011;3458;53.678;14.080;2023-04-06T04:13:09;11.50;;;6.30;;
6840;SDS011;3458;53.678;14.080;2023-04-06T04:15:34;10.17;;;5.70;;
6840;SDS011;3458;53.678;14.080;2023-04-06T04:18:00;8.40;;;5.97;;
6840;SDS011;3458;53.678;14.080;2023-04-06T04:20:25;9.57;;;5.87;;
6840;SDS011;3458;53.678;14.080;2023-04-06T04:22:51;9.87;;;6.10;;
6840;SDS011;3458;53.678;14.080;2023-04-06T04:25:16;10.17;;;5.93;;
6840;SDS011;3458;53.678;14.080;2023-04-06T04:27:42;9.37;;;5.60;;
6840;SDS011;3458;53.678;14.080;2023-04-06T04:30:07;9.10;;;5.30;;
6840;SDS011;3458;53.678;14.080;2023-04-06T04:32:33;12.57;;;6.60;;
6840;SDS011;3458;53.678;14.080;2023-04-06T04:34:59;12.27;;;5.77;;
6840;SDS011;3458;53.678;14.080;2023-04-06T04:37:24;9.67;;;5.70;;
6840;SDS011;3458;53.678;14.080;2023-04-06T04:39:50;10.30;;;6.20;;
6840;SDS011;3458;53.678;14.080;2023-04-06T04:42:15;12.50;;;7.03;;
6840;SDS011;3458;53.678;14.080;2023-04-06T04:44:41;11.63;;;6.10;;
6840;SDS011;3458;53.678;14.080;2023-04-06T04:47:06;9.63;;;5.60;;
6840;SDS011;3458;53.678;14.080;2023-04-06T04:49:32;10.23;;;6.40;;
6840;SDS011;3458;53.678;14.080;2023-04-06T04:51:57;12.30;;;6.30;;
6840;SDS011;3458;53.678;14.080;2023-04-06T04:54:23;13.27;;;6.90;;
6840;SDS011;3458;53.678;14.080;2023-04-06T04:56:48;13.70;;;6.60;;
6840;SDS011;3458;53.678;14.080;2023-04-06T04:59:15;10.60;;;6.30;;
6840;SDS011;3458;53.678;14.080;2023-04-06T05:01:41;9.50;;;6.20;;
6840;SDS011;3458;53.678;14.080;2023-04-06T05:04:06;10.67;;;6.60;;
6840;SDS011;3458;53.678;14.080;2023-04-06T05:06:32;7.93;;;5.60;;
6840;SDS011;3458;53.678;14.080;2023-04-06T05:08:57;15.40;;;7.20;;
6840;SDS011;3458;53.678;14.080;2023-04-06T05:11:23;10.20;;;6.40;;
6840;SDS011;3458;53.678;14.080;2023-04-06T05:13:48;14.97;;;7.70;;
6840;SDS011;3458;53.678;14.080;2023-04-06T05:16:14;15.57;;;6.80;;
6840;SDS011;3458;53.678;14.080;2023-04-06T05:18:40;10.83;;;6.50;;
6840;SDS011;3458;53.678;14.080;2023-04-06T05:21:05;12.33;;;7.00;;
6840;SDS011;3458;53.678;14.080;2023-04-06T05:23:31;11.83;;;7.00;;
6840;SDS011;3458;53.678;14.080;2023-04-06T05:25:56;11.13;;;7.17;;
6840;SDS011;3458;53.678;14.080;2023-04-06T05:28:22;18.97;;;11.83;;
6840;SDS011;3458;53.678;14.080;2023-04-06T05:30:47;47.27;;;23.10;;
6840;SDS011;3458;53.678;14.080;2023-04-06T05:33:13;25.47;;;17.17;;
6840;SDS011;3458;53.678;14.080;2023-04-06T05:35:38;18.97;;;9.33;;
6840;SDS011;3458;53.678;14.080;2023-04-06T05:38:07;13.47;;;6.63;;
6840;SDS011;3458;53.678;14.080;2023-04-06T05:40:32;25.30;;;6.60;;
6840;SDS011;3458;53.678;14.080;2023-04-06T05:42:58;12.00;;;6.03;;
6840;SDS011;3458;53.678;14.080;2023-04-06T05:45:23;16.23;;;6.67;;
6840;SDS011;3458;53.678;14.080;2023-04-06T05:47:49;14.73;;;7.27;;
6840;SDS011;3458;53.678;14.080;2023-04-06T05:50:15;19.53;;;9.00;;
6840;SDS011;3458;53.678;14.080;2023-04-06T05:52:40;12.03;;;6.07;;
6840;SDS011;3458;53.678;14.080;2023-04-06T05:55:08;10.30;;;6.13;;
6840;SDS011;3458;53.678;14.080;2023-04-06T05:57:34;15.73;;;7.57;;
6840;SDS011;3458;53.678;14.080;2023-04-06T06:00:00;11.53;;;6.20;;
6840;SDS011;3458;53.678;14.080;2023-04-06T06:02:25;11.40;;;6.23;;
6840;SDS011;3458;53.678;14.080;2023-04-06T06:04:51;10.23;;;6.57;;
6840;SDS011;3458;53.678;14.080;2023-04-06T06:07:16;13.50;;;9.00;;
6840;SDS011;3458;53.678;14.080;2023-04-06T06:09:42;13.77;;;8.83;;
6840;SDS011;3458;53.678;14.080;2023-04-06T06:12:07;11.70;;;7.20;;
6840;SDS011;3458;53.678;14.080;2023-04-06T06:14:33;16.20;;;6.43;;
6840;SDS011;3458;53.678;14.080;2023-04-06T06:16:59;11.33;;;6.27;;
6840;SDS011;3458;53.678;14.080;2023-04-06T06:19:24;9.30;;;6.20;;
6840;SDS011;3458;53.678;14.080;2023-04-06T06:21:50;10.23;;;5.60;;
6840;SDS011;3458;53.678;14.080;2023-04-06T06:24:15;14.10;;;5.83;;
6840;SDS011;3458;53.678;14.080;2023-04-06T06:26:41;13.33;;;6.03;;
6840;SDS011;3458;53.678;14.080;2023-04-06T06:29:07;10.70;;;7.50;;
6840;SDS011;3458;53.678;14.080;2023-04-06T06:31:34;11.13;;;6.30;;
6840;SDS011;3458;53.678;14.080;2023-04-06T06:34:00;10.50;;;6.57;;
6840;SDS011;3458;53.678;14.080;2023-04-06T06:36:26;12.00;;;6.10;;
6840;SDS011;3458;53.678;14.080;2023-04-06T06:38:52;13.20;;;6.10;;
6840;SDS011;3458;53.678;14.080;2023-04-06T06:41:17;9.20;;;6.30;;
6840;SDS011;3458;53.678;14.080;2023-04-06T06:43:43;14.00;;;5.57;;
6840;SDS011;3458;53.678;14.080;2023-04-06T06:46:08;8.73;;;5.40;;
6840;SDS011;3458;53.678;14.080;2023-04-06T06:48:34;11.10;;;5.30;;
6840;SDS011;3458;53.678;14.080;2023-04-06T06:51:00;8.00;;;5.43;;
6840;SDS011;3458;53.678;14.080;2023-04-06T06:53:25;11.70;;;5.67;;
6840;SDS011;3458;53.678;14.080;2023-04-06T06:55:51;10.03;;;5.17;;
6840;SDS011;3458;53.678;14.080;2023-04-06T06:58:19;8.67;;;4.73;;
6840;SDS011;3458;53.678;14.080;2023-04-06T07:00:45;13.20;;;5.20;;
6840;SDS011;3458;53.678;14.080;2023-04-06T07:03:11;10.00;;;4.90;;
6840;SDS011;3458;53.678;14.080;2023-04-06T07:05:36;10.63;;;5.23;;
6840;SDS011;3458;53.678;14.080;2023-04-06T07:08:02;7.23;;;4.70;;
6840;SDS011;3458;53.678;14.080;2023-04-06T07:10:28;7.40;;;4.87;;
6840;SDS011;3458;53.678;14.080;2023-04-06T07:12:53;8.33;;;4.50;;
6840;SDS011;3458;53.678;14.080;2023-04-06T07:15:19;8.73;;;4.90;;
6840;SDS011;3458;53.678;14.080;2023-04-06T07:17:44;9.13;;;4.37;;
6840;SDS011;3458;53.678;14.080;2023-04-06T07:20:10;19.23;;;5.07;;
6840;SDS011;3458;53.678;14.080;2023-04-06T07:22:37;9.73;;;4.30;;
6840;SDS011;3458;53.678;14.080;2023-04-06T07:25:03;10.23;;;4.60;;
6840;SDS011;3458;53.678;14.080;2023-04-06T07:27:29;12.13;;;4.50;;
6840;SDS011;3458;53.678;14.080;2023-04-06T07:29:54;10.30;;;4.53;;
6840;SDS011;3458;53.678;14.080;2023-04-06T07:32:20;9.07;;;4.10;;
6840;SDS011;3458;53.678;14.080;2023-04-06T07:34:45;5.50;;;3.50;;
6840;SDS011;3458;53.678;14.080;2023-04-06T07:37:11;6.50;;;4.20;;
6840;SDS011;3458;53.678;14.080;2023-04-06T07:39:37;7.43;;;4.40;;
6840;SDS011;3458;53.678;14.080;2023-04-06T07:42:02;11.60;;;4.30;;
6840;SDS011;3458;53.678;14.080;2023-04-06T07:44:28;5.30;;;4.10;;
6840;SDS011;3458;53.678;14.080;2023-04-06T07:46:54;7.10;;;3.53;;
6840;SDS011;3458;53.678;14.080;2023-04-06T07:49:19;8.83;;;4.70;;
6840;SDS011;3458;53.678;14.080;2023-04-06T07:51:45;8.93;;;4.37;;
6840;SDS011;3458;53.678;14.080;2023-04-06T07:54:11;6.70;;;3.87;;
6840;SDS011;3458;53.678;14.080;2023-04-06T07:56:37;5.13;;;3.80;;
6840;SDS011;3458;53.678;14.080;2023-04-06T07:59:02;7.03;;;4.00;;
6840;SDS011;3458;53.678;14.080;2023-04-06T08:01:28;6.00;;;4.17;;
6840;SDS011;3458;53.678;14.080;2023-04-06T08:03:55;7.60;;;3.93;;
6840;SDS011;3458;53.678;14.080;2023-04-06T08:06:21;7.83;;;3.73;;
6840;SDS011;3458;53.678;14.080;2023-04-06T08:08:46;6.87;;;5.27;;
6840;SDS011;3458;53.678;14.080;2023-04-06T08:11:12;6.10;;;3.70;;
6840;SDS011;3458;53.678;14.080;2023-04-06T08:13:37;7.97;;;4.13;;
6840;SDS011;3458;53.678;14.080;2023-04-06T08:16:03;16.10;;;7.67;;
6840;SDS011;3458;53.678;14.080;2023-04-06T08:18:29;7.10;;;3.87;;
6840;SDS011;3458;53.678;14.080;2023-04-06T08:20:55;8.30;;;3.53;;
6840;SDS011;3458;53.678;14.080;2023-04-06T08:23:20;8.60;;;3.70;;
6840;SDS011;3458;53.678;14.080;2023-04-06T08:25:46;6.70;;;4.37;;
6840;SDS011;3458;53.678;14.080;2023-04-06T08:28:12;7.30;;;3.60;;
6840;SDS011;3458;53.678;14.080;2023-04-06T08:30:39;6.67;;;4.30;;
6840;SDS011;3458;53.678;14.080;2023-04-06T08:33:05;5.20;;;3.70;;
6840;SDS011;3458;53.678;14.080;2023-04-06T08:35:31;4.80;;;4.20;;
6840;SDS011;3458;53.678;14.080;2023-04-06T08:37:57;9.40;;;3.93;;
6840;SDS011;3458;53.678;14.080;2023-04-06T08:40:22;5.47;;;3.30;;
6840;SDS011;3458;53.678;14.080;2023-04-06T08:42:57;5.43;;;3.53;;
6840;SDS011;3458;53.678;14.080;2023-04-06T08:45:28;8.20;;;4.60;;
6840;SDS011;3458;53.678;14.080;2023-04-06T08:47:54;7.00;;;4.10;;
6840;SDS011;3458;53.678;14.080;2023-04-06T08:50:26;4.27;;;3.57;;
6840;SDS011;3458;53.678;14.080;2023-04-06T08:52:54;5.33;;;3.73;;
6840;SDS011;3458;53.678;14.080;2023-04-06T08:55:20;7.03;;;3.37;;
6840;SDS011;3458;53.678;14.080;2023-04-06T08:57:47;9.53;;;3.80;;
6840;SDS011;3458;53.678;14.080;2023-04-06T09:00:13;12.00;;;3.80;;
6840;SDS011;3458;53.678;14.080;2023-04-06T09:02:40;4.97;;;3.67;;
6840;SDS011;3458;53.678;14.080;2023-04-06T09:05:08;4.87;;;3.30;;
6840;SDS011;3458;53.678;14.080;2023-04-06T09:07:35;4.80;;;3.13;;
6840;SDS011;3458;53.678;14.080;2023-04-06T09:10:01;5.37;;;3.77;;
6840;SDS011;3458;53.678;14.080;2023-04-06T09:12:29;7.43;;;3.40;;
6840;SDS011;3458;53.678;14.080;2023-04-06T09:14:55;6.50;;;3.53;;
6840;SDS011;3458;53.678;14.080;2023-04-06T09:17:25;12.60;;;3.20;;
6840;SDS011;3458;53.678;14.080;2023-04-06T09:19:52;3.70;;;2.90;;
6840;SDS011;3458;53.678;14.080;2023-04-06T09:22:18;6.77;;;3.40;;
6840;SDS011;3458;53.678;14.080;2023-04-06T09:24:46;4.53;;;3.17;;
6840;SDS011;3458;53.678;14.080;2023-04-06T09:27:13;7.00;;;3.23;;
6840;SDS011;3458;53.678;14.080;2023-04-06T09:29:40;6.20;;;3.90;;
6840;SDS011;3458;53.678;14.080;2023-04-06T09:32:07;3.83;;;3.07;;
6840;SDS011;3458;53.678;14.080;2023-04-06T09:34:36;4.60;;;2.73;;
6840;SDS011;3458;53.678;14.080;2023-04-06T09:37:13;6.33;;;3.50;;
6840;SDS011;3458;53.678;14.080;2023-04-06T09:39:39;5.93;;;3.93;;
6840;SDS011;3458;53.678;14.080;2023-04-06T09:42:05;8.57;;;3.53;;
6840;SDS011;3458;53.678;14.080;2023-04-06T09:44:30;4.33;;;2.80;;
6840;SDS011;3458;53.678;14.080;2023-04-06T09:46:56;8.33;;;3.30;;
6840;SDS011;3458;53.678;14.080;2023-04-06T09:49:22;5.70;;;2.63;;
6840;SDS011;3458;53.678;14.080;2023-04-06T09:51:53;6.73;;;3.47;;
6840;SDS011;3458;53.678;14.080;2023-04-06T09:54:22;3.80;;;2.50;;
6840;SDS011;3458;53.678;14.080;2023-04-06T10:02:29;2.57;;;2.37;;
6840;SDS011;3458;53.678;14.080;2023-04-06T10:05:12;4.83;;;2.87;;
6840;SDS011;3458;53.678;14.080;2023-04-06T10:07:43;8.83;;;3.20;;
6840;SDS011;3458;53.678;14.080;2023-04-06T10:10:10;6.00;;;2.80;;
6840;SDS011;3458;53.678;14.080;2023-04-06T10:12:39;5.77;;;2.47;;
6840;SDS011;3458;53.678;14.080;2023-04-06T10:15:05;4.30;;;2.60;;
6840;SDS011;3458;53.678;14.080;2023-04-06T10:17:32;2.80;;;2.30;;
6840;SDS011;3458;53.678;14.080;2023-04-06T10:19:59;3.80;;;3.00;;
6840;SDS011;3458;53.678;14.080;2023-04-06T10:22:45;4.63;;;3.30;;
6840;SDS011;3458;53.678;14.080;2023-04-06T10:25:26;4.40;;;2.70;;
6840;SDS011;3458;53.678;14.080;2023-04-06T10:27:58;4.07;;;3.00;;
6840;SDS011;3458;53.678;14.080;2023-04-06T10:30:25;3.67;;;2.70;;
6840;SDS011;3458;53.678;14.080;2023-04-06T10:32:51;3.50;;;2.90;;
6840;SDS011;3458;53.678;14.080;2023-04-06T10:35:16;3.20;;;2.27;;
6840;SDS011;3458;53.678;14.080;2023-04-06T10:37:52;4.20;;;3.07;;
6840;SDS011;3458;53.678;14.080;2023-04-06T10:40:26;7.47;;;2.80;;
6840;SDS011;3458;53.678;14.080;2023-04-06T10:42:53;2.80;;;2.57;;
6840;SDS011;3458;53.678;14.080;2023-04-06T10:45:20;5.97;;;3.50;;
6840;SDS011;3458;53.678;14.080;2023-04-06T10:47:47;3.43;;;3.13;;
6840;SDS011;3458;53.678;14.080;2023-04-06T10:50:16;6.83;;;3.97;;
6840;SDS011;3458;53.678;14.080;2023-04-06T10:52:45;4.60;;;2.20;;
6840;SDS011;3458;53.678;14.080;2023-04-06T10:55:13;5.97;;;2.97;;
6840;SDS011;3458;53.678;14.080;2023-04-06T10:57:40;5.50;;;2.93;;
6840;SDS011;3458;53.678;14.080;2023-04-06T11:00:06;5.00;;;2.60;;
6840;SDS011;3458;53.678;14.080;2023-04-06T11:02:32;3.97;;;2.80;;
6840;SDS011;3458;53.678;14.080;2023-04-06T11:04:59;6.67;;;3.20;;
6840;SDS011;3458;53.678;14.080;2023-04-06T11:07:27;5.00;;;4.00;;
6840;SDS011;3458;53.678;14.080;2023-04-06T11:09:55;4.30;;;3.47;;
6840;SDS011;3458;53.678;14.080;2023-04-06T11:12:22;10.93;;;3.30;;
6840;SDS011;3458;53.678;14.080;2023-04-06T11:14:59;3.40;;;3.10;;
6840;SDS011;3458;53.678;14.080;2023-04-06T11:17:33;6.20;;;3.30;;
6840;SDS011;3458;53.678;14.080;2023-04-06T11:20:00;4.70;;;3.10;;
6840;SDS011;3458;53.678;14.080;2023-04-06T11:22:27;5.87;;;3.20;;
6840;SDS011;3458;53.678;14.080;2023-04-06T11:24:52;5.10;;;3.67;;
6840;SDS011;3458;53.678;14.080;2023-04-06T11:27:18;9.33;;;2.77;;
6840;SDS011;3458;53.678;14.080;2023-04-06T11:29:45;3.83;;;3.07;;
6840;SDS011;3458;53.678;14.080;2023-04-06T11:32:19;5.50;;;3.27;;
6840;SDS011;3458;53.678;14.080;2023-04-06T11:34:46;5.30;;;2.93;;
6840;SDS011;3458;53.678;14.080;2023-04-06T11:37:13;2.73;;;2.53;;
6840;SDS011;3458;53.678;14.080;2023-04-06T11:39:39;7.37;;;3.67;;
6840;SDS011;3458;53.678;14.080;2023-04-06T11:42:28;3.93;;;3.00;;
6840;SDS011;3458;53.678;14.080;2023-04-06T11:44:55;2.97;;;2.57;;
6840;SDS011;3458;53.678;14.080;2023-04-06T11:47:27;4.57;;;3.07;;
6840;SDS011;3458;53.678;14.080;2023-04-06T11:49:55;7.40;;;3.73;;
6840;SDS011;3458;53.678;14.080;2023-04-06T11:52:24;9.23;;;2.87;;
6840;SDS011;3458;53.678;14.080;2023-04-06T11:54:52;3.93;;;3.40;;
6840;SDS011;3458;53.678;14.080;2023-04-06T11:57:19;9.40;;;3.30;;
6840;SDS011;3458;53.678;14.080;2023-04-06T11:59:46;6.90;;;3.70;;
6840;SDS011;3458;53.678;14.080;2023-04-06T12:02:12;3.83;;;2.90;;
6840;SDS011;3458;53.678;14.080;2023-04-06T12:04:38;7.40;;;3.43;;
6840;SDS011;3458;53.678;14.080;2023-04-06T12:07:04;3.77;;;3.17;;
6840;SDS011;3458;53.678;14.080;2023-04-06T12:09:29;8.70;;;4.17;;
6840;SDS011;3458;53.678;14.080;2023-04-06T12:11:55;8.13;;;4.17;;
6840;SDS011;3458;53.678;14.080;2023-04-06T12:14:21;11.70;;;5.00;;
6840;SDS011;3458;53.678;14.080;2023-04-06T12:16:47;8.70;;;5.00;;
6840;SDS011;3458;53.678;14.080;2023-04-06T12:19:13;6.87;;;4.23;;
6840;SDS011;3458;53.678;14.080;2023-04-06T12:21:39;5.13;;;3.63;;
6840;SDS011;3458;53.678;14.080;2023-04-06T12:24:05;10.93;;;3.87;;
6840;SDS011;3458;53.678;14.080;2023-04-06T12:26:31;7.00;;;3.37;;
6840;SDS011;3458;53.678;14.080;2023-04-06T12:28:58;4.00;;;3.43;;
6840;SDS011;3458;53.678;14.080;2023-04-06T12:31:32;4.77;;;3.23;;
6840;SDS011;3458;53.678;14.080;2023-04-06T12:33:59;6.60;;;3.80;;
6840;SDS011;3458;53.678;14.080;2023-04-06T12:36:36;5.30;;;3.00;;
6840;SDS011;3458;53.678;14.080;2023-04-06T12:39:02;14.07;;;4.90;;
6840;SDS011;3458;53.678;14.080;2023-04-06T12:41:28;6.70;;;4.53;;
6840;SDS011;3458;53.678;14.080;2023-04-06T12:43:54;7.53;;;3.80;;
6840;SDS011;3458;53.678;14.080;2023-04-06T12:46:20;7.30;;;3.47;;
6840;SDS011;3458;53.678;14.080;2023-04-06T12:48:46;8.00;;;3.37;;
6840;SDS011;3458;53.678;14.080;2023-04-06T12:51:12;6.30;;;3.67;;
6840;SDS011;3458;53.678;14.080;2023-04-06T12:53:38;5.53;;;4.03;;
6840;SDS011;3458;53.678;14.080;2023-04-06T12:56:12;5.40;;;3.43;;
6840;SDS011;3458;53.678;14.080;2023-04-06T12:58:38;7.33;;;4.10;;
6840;SDS011;3458;53.678;14.080;2023-04-06T13:01:06;9.77;;;5.37;;
6840;SDS011;3458;53.678;14.080;2023-04-06T13:03:32;20.00;;;6.83;;
6840;SDS011;3458;53.678;14.080;2023-04-06T13:05:58;7.67;;;5.20;;
6840;SDS011;3458;53.678;14.080;2023-04-06T13:08:25;9.90;;;5.43;;
6840;SDS011;3458;53.678;14.080;2023-04-06T13:10:52;8.60;;;5.70;;
6840;SDS011;3458;53.678;14.080;2023-04-06T13:13:25;7.30;;;4.90;;
6840;SDS011;3458;53.678;14.080;2023-04-06T13:15:52;8.60;;;5.00;;
6840;SDS011;3458;53.678;14.080;2023-04-06T13:18:18;11.87;;;6.93;;
6840;SDS011;3458;53.678;14.080;2023-04-06T13:20:46;12.47;;;6.77;;
6840;SDS011;3458;53.678;14.080;2023-04-06T13:23:12;11.60;;;6.57;;
6840;SDS011;3458;53.678;14.080;2023-04-06T13:25:37;9.57;;;5.80;;
6840;SDS011;3458;53.678;14.080;2023-04-06T13:28:03;9.60;;;5.03;;
6840;SDS011;3458;53.678;14.080;2023-04-06T13:30:28;8.63;;;5.03;;
6840;SDS011;3458;53.678;14.080;2023-04-06T13:32:54;8.53;;;5.30;;
6840;SDS011;3458;53.678;14.080;2023-04-06T13:35:20;12.00;;;6.07;;
6840;SDS011;3458;53.678;14.080;2023-04-06T13:37:46;7.50;;;4.90;;
6840;SDS011;3458;53.678;14.080;2023-04-06T13:40:11;8.53;;;5.63;;
6840;SDS011;3458;53.678;14.080;2023-04-06T13:42:37;9.60;;;5.83;;
6840;SDS011;3458;53.678;14.080;2023-04-06T13:45:06;10.73;;;5.80;;
6840;SDS011;3458;53.678;14.080;2023-04-06T13:47:32;12.17;;;5.60;;
6840;SDS011;3458;53.678;14.080;2023-04-06T13:49:58;10.27;;;5.67;;
6840;SDS011;3458;53.678;14.080;2023-04-06T13:52:23;8.30;;;5.73;;
6840;SDS011;3458;53.678;14.080;2023-04-06T13:54:49;14.23;;;6.53;;
6840;SDS011;3458;53.678;14.080;2023-04-06T13:57:15;8.70;;;5.53;;
6840;SDS011;3458;53.678;14.080;2023-04-06T13:59:41;15.23;;;5.83;;
6840;SDS011;3458;53.678;14.080;2023-04-06T14:02:08;8.73;;;5.10;;
6840;SDS011;3458;53.678;14.080;2023-04-06T14:04:34;9.00;;;4.77;;
6840;SDS011;3458;53.678;14.080;2023-04-06T14:07:00;8.10;;;4.67;;
6840;SDS011;3458;53.678;14.080;2023-04-06T14:09:27;38.53;;;16.60;;
6840;SDS011;3458;53.678;14.080;2023-04-06T14:11:53;17.27;;;10.60;;
6840;SDS011;3458;53.678;14.080;2023-04-06T14:14:20;17.50;;;5.90;;
6840;SDS011;3458;53.678;14.080;2023-04-06T14:16:46;6.80;;;5.00;;
6840;SDS011;3458;53.678;14.080;2023-04-06T14:19:13;6.80;;;4.83;;
6840;SDS011;3458;53.678;14.080;2023-04-06T14:21:41;8.17;;;4.63;;
6840;SDS011;3458;53.678;14.080;2023-04-06T14:24:07;6.87;;;4.63;;
6840;SDS011;3458;53.678;14.080;2023-04-06T14:26:33;7.80;;;4.67;;
6840;SDS011;3458;53.678;14.080;2023-04-06T14:28:59;6.93;;;4.87;;
6840;SDS011;3458;53.678;14.080;2023-04-06T14:31:26;6.30;;;4.90;;
6840;SDS011;3458;53.678;14.080;2023-04-06T14:33:51;6.43;;;4.63;;
6840;SDS011;3458;53.678;14.080;2023-04-06T14:36:17;7.53;;;4.03;;
6840;SDS011;3458;53.678;14.080;2023-04-06T14:38:43;5.27;;;3.77;;
6840;SDS011;3458;53.678;14.080;2023-04-06T14:41:14;9.33;;;4.60;;
6840;SDS011;3458;53.678;14.080;2023-04-06T14:43:42;7.10;;;4.70;;
6840;SDS011;3458;53.678;14.080;2023-04-06T14:46:07;11.07;;;4.80;;
6840;SDS011;3458;53.678;14.080;2023-04-06T14:48:34;9.30;;;4.43;;
6840;SDS011;3458;53.678;14.080;2023-04-06T14:51:00;6.00;;;3.90;;
6840;SDS011;3458;53.678;14.080;2023-04-06T14:53:26;7.40;;;4.50;;
6840;SDS011;3458;53.678;14.080;2023-04-06T14:55:52;6.90;;;3.77;;
6840;SDS011;3458;53.678;14.080;2023-04-06T14:58:19;13.00;;;7.93;;